Time;durP1;ratioP1;P1;durP2;ratioP2;P2;SDS_P1;SDS_P2;PMS_P1;PMS_P2;Temp;Humidity;BMP_temperature;BMP_pressure;BME280_temperature;BME280_humidity;BME280_pressure;Samples;Min_cycle;Max_cycle;Signal;HPM_P1;HPM_P2
2021/09/23 00:01:06;;;;;;;8.90;7.30;;;;;;;;;;5013488;28;20432;-73
2021/09/23 00:06:04;;;;;;;7.10;6.50;;;;;;;;;;5013515;28;20782;-74
2021/09/23 00:08:30;;;;;;;7.40;6.60;;;;;;;;;;5013484;28;20440;-73
2021/09/23 00:10:56;;;;;;;8.50;6.63;;;;;;;;;;5013045;28;20412;-73
2021/09/23 00:13:25;;;;;;;7.50;6.30;;;;;;;;;;5007474;28;20969;-75
2021/09/23 00:15:51;;;;;;;7.70;6.93;;;;;;;;;;5014736;28;20451;-74
2021/09/23 00:18:18;;;;;;;6.77;6.10;;;;;;;;;;5032758;28;20720;-74
2021/09/23 00:20:48;;;;;;;9.60;6.87;;;;;;;;;;5033121;28;20420;-74
2021/09/23 00:23:14;;;;;;;6.97;6.33;;;;;;;;;;5033035;28;20422;-73
2021/09/23 00:25:41;;;;;;;7.87;6.30;;;;;;;;;;5032924;28;20498;-75
2021/09/23 00:28:08;;;;;;;7.03;6.33;;;;;;;;;;5032247;28;20408;-74
2021/09/23 00:30:34;;;;;;;7.93;6.10;;;;;;;;;;5032778;28;20527;-74
2021/09/23 00:33:00;;;;;;;7.80;6.03;;;;;;;;;;5032673;28;20440;-74
2021/09/23 00:35:26;;;;;;;8.33;6.40;;;;;;;;;;5032750;28;20431;-74
2021/09/23 00:37:53;;;;;;;6.80;5.73;;;;;;;;;;5032569;28;20424;-74
2021/09/23 00:40:19;;;;;;;8.87;6.07;;;;;;;;;;5048039;28;20505;-74
2021/09/23 00:42:49;;;;;;;7.10;5.93;;;;;;;;;;5032072;28;20477;-73
2021/09/23 00:45:16;;;;;;;7.70;6.27;;;;;;;;;;5013057;28;20500;-74
2021/09/23 00:47:42;;;;;;;8.20;7.07;;;;;;;;;;5012992;28;20420;-73
2021/09/23 00:50:09;;;;;;;9.10;5.63;;;;;;;;;;5012980;28;20416;-74
2021/09/23 00:52:36;;;;;;;6.90;5.80;;;;;;;;;;5012701;28;20958;-74
2021/09/23 00:55:03;;;;;;;8.90;6.77;;;;;;;;;;5030116;28;20416;-74
2021/09/23 00:57:29;;;;;;;9.33;7.50;;;;;;;;;;5031824;28;20411;-74
2021/09/23 00:59:56;;;;;;;7.70;6.93;;;;;;;;;;5032687;28;20751;-74
2021/09/23 01:02:22;;;;;;;8.23;6.40;;;;;;;;;;5032821;28;20738;-74
2021/09/23 01:04:49;;;;;;;7.43;6.57;;;;;;;;;;5032440;28;20552;-74
2021/09/23 01:07:17;;;;;;;8.83;6.50;;;;;;;;;;5030880;28;20447;-73
2021/09/23 01:09:44;;;;;;;6.80;6.10;;;;;;;;;;5032303;28;20428;-74
2021/09/23 01:12:10;;;;;;;7.97;6.77;;;;;;;;;;5030350;28;20431;-74
2021/09/23 01:14:36;;;;;;;6.83;5.70;;;;;;;;;;5032397;28;20420;-73
2021/09/23 01:17:03;;;;;;;7.67;5.13;;;;;;;;;;5032453;28;20431;-72
2021/09/23 01:19:30;;;;;;;7.20;6.20;;;;;;;;;;5032388;28;20424;-74
2021/09/23 01:21:56;;;;;;;8.77;6.27;;;;;;;;;;5019124;28;20848;-74
2021/09/23 01:24:22;;;;;;;6.97;6.33;;;;;;;;;;5012684;28;20609;-74
2021/09/23 01:26:48;;;;;;;6.43;5.83;;;;;;;;;;5012299;28;20741;-73
2021/09/23 01:29:14;;;;;;;8.73;6.70;;;;;;;;;;5012893;28;20425;-74
2021/09/23 01:31:40;;;;;;;7.73;6.80;;;;;;;;;;5014888;28;20420;-74
2021/09/23 01:34:06;;;;;;;8.40;6.43;;;;;;;;;;5016325;28;20447;-74
2021/09/23 01:36:32;;;;;;;6.60;6.00;;;;;;;;;;5018879;28;20941;-74
2021/09/23 01:38:58;;;;;;;7.83;5.70;;;;;;;;;;5016294;28;20466;-74
2021/09/23 01:41:24;;;;;;;7.70;6.30;;;;;;;;;;5015595;28;20416;-72
2021/09/23 01:43:50;;;;;;;6.27;5.13;;;;;;;;;;5015941;28;21053;-73
2021/09/23 01:46:16;;;;;;;8.57;6.87;;;;;;;;;;5016099;28;20516;-73
2021/09/23 01:48:42;;;;;;;8.60;6.37;;;;;;;;;;5016086;28;20971;-73
2021/09/23 01:51:08;;;;;;;7.03;6.33;;;;;;;;;;5015847;28;20515;-73
2021/09/23 01:53:34;;;;;;;7.13;6.20;;;;;;;;;;5016278;28;20530;-73
2021/09/23 01:56:00;;;;;;;8.00;7.20;;;;;;;;;;5015445;28;20420;-73
2021/09/23 01:58:26;;;;;;;8.03;7.00;;;;;;;;;;5015564;28;20774;-73
2021/09/23 02:00:52;;;;;;;7.20;6.50;;;;;;;;;;5030927;28;20440;-72
2021/09/23 02:03:18;;;;;;;6.83;6.23;;;;;;;;;;5015830;28;20424;-73
2021/09/23 02:05:44;;;;;;;7.67;6.83;;;;;;;;;;5015716;28;20483;-73
2021/09/23 02:08:10;;;;;;;8.07;6.90;;;;;;;;;;5015397;28;20431;-73
2021/09/23 02:10:36;;;;;;;9.53;6.60;;;;;;;;;;5015684;28;20432;-73
2021/09/23 02:13:02;;;;;;;7.83;6.80;;;;;;;;;;5014981;28;20432;-73
2021/09/23 02:15:28;;;;;;;7.20;6.50;;;;;;;;;;5030873;28;20432;-73
2021/09/23 02:17:54;;;;;;;8.10;5.87;;;;;;;;;;5015443;28;20515;-74
2021/09/23 02:20:20;;;;;;;8.33;7.20;;;;;;;;;;5030667;28;20433;-73
2021/09/23 02:22:46;;;;;;;9.03;7.63;;;;;;;;;;5015263;28;20528;-73
2021/09/23 02:25:12;;;;;;;9.60;7.70;;;;;;;;;;5015381;28;20566;-73
2021/09/23 02:27:38;;;;;;;10.17;7.60;;;;;;;;;;5014643;28;20471;-73
2021/09/23 02:30:04;;;;;;;9.10;6.90;;;;;;;;;;5015403;28;20424;-73
2021/09/23 02:32:30;;;;;;;11.13;7.40;;;;;;;;;;5015335;28;20409;-73
2021/09/23 02:34:57;;;;;;;7.60;6.80;;;;;;;;;;5015182;28;20441;-74
2021/09/23 02:37:26;;;;;;;9.20;7.70;;;;;;;;;;5030272;28;20441;-74
2021/09/23 02:39:52;;;;;;;8.30;6.83;;;;;;;;;;5015039;28;20499;-73
2021/09/23 02:42:18;;;;;;;8.70;7.83;;;;;;;;;;5014230;28;20790;-74
2021/09/23 02:44:45;;;;;;;12.60;7.97;;;;;;;;;;5014708;28;20499;-73
2021/09/23 02:47:11;;;;;;;9.33;8.40;;;;;;;;;;5015237;28;20444;-73
2021/09/23 02:49:37;;;;;;;10.43;7.47;;;;;;;;;;5015039;28;20451;-73
2021/09/23 02:52:03;;;;;;;10.53;7.77;;;;;;;;;;5029904;28;20471;-73
2021/09/23 02:54:29;;;;;;;11.77;8.20;;;;;;;;;;5027750;28;20969;-73
2021/09/23 02:56:55;;;;;;;8.67;7.63;;;;;;;;;;5033940;28;20477;-73
2021/09/23 02:59:21;;;;;;;10.47;7.30;;;;;;;;;;5034545;28;20422;-73
2021/09/23 03:01:47;;;;;;;9.77;7.90;;;;;;;;;;5034523;28;20450;-74
2021/09/23 03:04:13;;;;;;;8.87;7.27;;;;;;;;;;5034385;28;20483;-74
2021/09/23 03:06:39;;;;;;;10.90;7.60;;;;;;;;;;5034230;28;20902;-74
2021/09/23 03:09:06;;;;;;;12.23;7.80;;;;;;;;;;5033018;28;20439;-73
2021/09/23 03:11:32;;;;;;;9.13;8.00;;;;;;;;;;5033878;28;20423;-73
2021/09/23 03:13:58;;;;;;;9.33;8.13;;;;;;;;;;5034241;28;20426;-73
2021/09/23 03:16:24;;;;;;;8.87;7.97;;;;;;;;;;5034199;28;20415;-73
2021/09/23 03:18:50;;;;;;;8.47;7.57;;;;;;;;;;5034106;28;20438;-73
2021/09/23 03:21:16;;;;;;;8.93;7.90;;;;;;;;;;5027613;28;20433;-73
2021/09/23 03:23:42;;;;;;;7.67;6.87;;;;;;;;;;5014465;28;20566;-74
2021/09/23 03:26:08;;;;;;;9.37;8.37;;;;;;;;;;5013477;28;20878;-73
2021/09/23 03:28:34;;;;;;;9.93;8.47;;;;;;;;;;5029325;28;20435;-73
2021/09/23 03:31:00;;;;;;;8.87;7.07;;;;;;;;;;5014036;28;20432;-73
2021/09/23 03:33:26;;;;;;;9.33;8.03;;;;;;;;;;5014469;28;20416;-74
2021/09/23 03:35:53;;;;;;;9.43;7.00;;;;;;;;;;5029190;28;21029;-73
2021/09/23 03:38:19;;;;;;;10.97;7.60;;;;;;;;;;5023378;28;20448;-73
2021/09/23 03:40:45;;;;;;;15.50;8.23;;;;;;;;;;5032593;28;20471;-73
2021/09/23 03:43:14;;;;;;;8.70;7.47;;;;;;;;;;5031808;28;20789;-73
2021/09/23 03:45:41;;;;;;;7.90;6.03;;;;;;;;;;5033466;28;20498;-73
2021/09/23 03:48:07;;;;;;;7.33;6.60;;;;;;;;;;5033644;28;20416;-73
2021/09/23 03:50:33;;;;;;;8.30;7.30;;;;;;;;;;5033651;28;20438;-73
2021/09/23 03:52:59;;;;;;;7.77;6.93;;;;;;;;;;5033031;28;20825;-74
2021/09/23 03:55:25;;;;;;;10.13;7.77;;;;;;;;;;5013707;28;20431;-73
2021/09/23 03:57:51;;;;;;;7.50;6.67;;;;;;;;;;5028264;28;20775;-73
2021/09/23 04:00:20;;;;;;;7.70;6.90;;;;;;;;;;5028904;28;20522;-73
2021/09/23 04:02:46;;;;;;;11.57;7.60;;;;;;;;;;5013734;28;20779;-73
2021/09/23 04:05:12;;;;;;;8.70;7.80;;;;;;;;;;5013692;28;20475;-73
2021/09/23 04:07:38;;;;;;;9.50;7.80;;;;;;;;;;5013501;28;20886;-74
2021/09/23 04:10:05;;;;;;;10.10;7.40;;;;;;;;;;5013618;28;20427;-74
2021/09/23 04:12:31;;;;;;;8.20;7.30;;;;;;;;;;5013020;28;20597;-74
2021/09/23 04:14:57;;;;;;;9.73;7.03;;;;;;;;;;5013541;28;20451;-73
2021/09/23 04:17:23;;;;;;;10.40;7.80;;;;;;;;;;5013545;28;20413;-73
2021/09/23 04:19:49;;;;;;;9.93;7.90;;;;;;;;;;5013410;28;20438;-73
2021/09/23 04:22:15;;;;;;;9.13;8.23;;;;;;;;;;5013239;28;20455;-73
2021/09/23 04:24:41;;;;;;;11.73;9.07;;;;;;;;;;5013351;28;20513;-73
2021/09/23 04:27:08;;;;;;;12.87;8.93;;;;;;;;;;5012580;28;20422;-72
2021/09/23 04:29:34;;;;;;;10.40;7.93;;;;;;;;;;5013347;28;20486;-73
2021/09/23 04:32:00;;;;;;;12.40;8.80;;;;;;;;;;5028335;28;20435;-74
2021/09/23 04:34:26;;;;;;;13.47;9.37;;;;;;;;;;5013267;28;20918;-73
2021/09/23 04:36:52;;;;;;;14.50;9.20;;;;;;;;;;5013132;28;20748;-73
2021/09/23 04:39:18;;;;;;;14.77;11.47;;;;;;;;;;5013099;28;20558;-73
2021/09/23 04:41:44;;;;;;;12.37;9.90;;;;;;;;;;5012528;28;20411;-72
2021/09/23 04:44:10;;;;;;;15.00;10.00;;;;;;;;;;5012681;28;20490;-73
2021/09/23 04:46:37;;;;;;;14.80;10.00;;;;;;;;;;5013122;28;20423;-73
2021/09/23 04:49:03;;;;;;;11.20;8.47;;;;;;;;;;5013099;28;20817;-72
2021/09/23 04:51:29;;;;;;;9.87;8.70;;;;;;;;;;5012947;28;20423;-73
2021/09/23 04:53:55;;;;;;;11.30;8.60;;;;;;;;;;5021162;28;20431;-73
2021/09/23 04:56:21;;;;;;;10.50;8.23;;;;;;;;;;5032017;28;20419;-74
2021/09/23 04:58:47;;;;;;;9.83;8.83;;;;;;;;;;5032745;28;20451;-73
2021/09/23 05:01:13;;;;;;;9.77;8.20;;;;;;;;;;5032674;28;20950;-73
2021/09/23 05:03:39;;;;;;;12.47;7.77;;;;;;;;;;5032640;28;20423;-74
2021/09/23 05:06:06;;;;;;;17.20;9.27;;;;;;;;;;5034367;28;21382;-73
2021/09/23 05:08:32;;;;;;;9.30;7.90;;;;;;;;;;5036547;28;20627;-73
2021/09/23 05:10:58;;;;;;;10.30;8.60;;;;;;;;;;5036190;28;20558;-73
2021/09/23 05:13:24;;;;;;;11.07;8.40;;;;;;;;;;5036382;28;20431;-73
2021/09/23 05:15:49;;;;;;;12.97;10.43;;;;;;;;;;5036378;28;20426;-73
2021/09/23 05:18:15;;;;;;;12.00;8.00;;;;;;;;;;5036439;28;20423;-73
2021/09/23 05:20:41;;;;;;;11.27;8.80;;;;;;;;;;5034802;28;20524;-74
2021/09/23 05:23:07;;;;;;;9.17;8.17;;;;;;;;;;5016342;28;20431;-73
2021/09/23 05:25:35;;;;;;;10.67;7.93;;;;;;;;;;5016388;28;20482;-73
2021/09/23 05:28:01;;;;;;;10.20;8.10;;;;;;;;;;5015769;28;20423;-73
2021/09/23 05:30:27;;;;;;;7.73;6.90;;;;;;;;;;5016580;28;20431;-73
2021/09/23 05:32:53;;;;;;;9.87;7.47;;;;;;;;;;5016379;28;20433;-73
2021/09/23 05:35:20;;;;;;;10.20;7.63;;;;;;;;;;5016648;28;20527;-74
2021/09/23 05:37:46;;;;;;;15.10;8.20;;;;;;;;;;5017792;28;20949;-74
2021/09/23 05:40:13;;;;;;;14.20;8.03;;;;;;;;;;5035287;28;20980;-74
2021/09/23 05:42:39;;;;;;;9.47;8.00;;;;;;;;;;5035304;28;20430;-72
2021/09/23 05:45:08;;;;;;;16.03;9.23;;;;;;;;;;5034743;28;20493;-73
2021/09/23 05:47:34;;;;;;;10.10;8.37;;;;;;;;;;5018559;28;20430;-73
2021/09/23 05:50:00;;;;;;;13.80;9.17;;;;;;;;;;5015058;28;20419;-72
2021/09/23 05:52:26;;;;;;;11.23;9.50;;;;;;;;;;5025406;28;20422;-73
2021/09/23 05:54:52;;;;;;;12.13;9.27;;;;;;;;;;5034810;28;20779;-73
2021/09/23 05:57:32;;;;;;;11.50;8.73;;;;;;;;;;5033744;28;20411;-73
2021/09/23 05:59:58;;;;;;;12.97;9.00;;;;;;;;;;5034581;28;20415;-73
2021/09/23 06:02:24;;;;;;;10.17;9.10;;;;;;;;;;5034516;28;20439;-73
2021/09/23 06:04:50;;;;;;;10.30;8.10;;;;;;;;;;5034360;28;20517;-72
2021/09/23 06:07:16;;;;;;;11.00;7.47;;;;;;;;;;5034025;28;20780;-73
2021/09/23 06:09:43;;;;;;;10.83;7.80;;;;;;;;;;5034396;28;20426;-73
2021/09/23 06:12:09;;;;;;;8.97;7.40;;;;;;;;;;5014925;28;20922;-74
2021/09/23 06:14:35;;;;;;;9.30;8.20;;;;;;;;;;5014910;28;20776;-73
2021/09/23 06:17:01;;;;;;;9.27;7.97;;;;;;;;;;5014067;28;20753;-73
2021/09/23 06:19:27;;;;;;;10.83;7.60;;;;;;;;;;5014561;28;20420;-74
2021/09/23 06:21:53;;;;;;;10.00;7.63;;;;;;;;;;5014183;28;20423;-73
2021/09/23 06:24:19;;;;;;;8.40;7.07;;;;;;;;;;5014358;28;20478;-72
2021/09/23 06:26:45;;;;;;;12.23;7.63;;;;;;;;;;5013547;28;20416;-73
2021/09/23 06:29:11;;;;;;;11.07;6.73;;;;;;;;;;5014378;28;20462;-73
2021/09/23 06:31:37;;;;;;;13.83;8.17;;;;;;;;;;5014214;28;20717;-73
2021/09/23 06:34:03;;;;;;;9.67;7.10;;;;;;;;;;5014601;28;20423;-73
2021/09/23 06:36:29;;;;;;;11.03;7.30;;;;;;;;;;5014204;28;20471;-73
2021/09/23 06:38:55;;;;;;;12.43;7.60;;;;;;;;;;5013934;28;20433;-73
2021/09/23 06:41:21;;;;;;;8.93;7.17;;;;;;;;;;5017214;28;20465;-72
2021/09/23 06:43:50;;;;;;;6.90;6.20;;;;;;;;;;5029815;28;20475;-73
2021/09/23 06:46:17;;;;;;;7.23;6.53;;;;;;;;;;5034732;28;20435;-73
2021/09/23 06:48:43;;;;;;;9.63;6.87;;;;;;;;;;5030155;28;20458;-72
2021/09/23 06:51:09;;;;;;;6.13;5.43;;;;;;;;;;5013561;28;20903;-72
2021/09/23 06:53:35;;;;;;;5.97;5.37;;;;;;;;;;5018947;28;20452;-71
2021/09/23 06:56:01;;;;;;;9.83;6.07;;;;;;;;;;5033018;28;20760;-72
2021/09/23 06:58:27;;;;;;;9.90;5.20;;;;;;;;;;5033392;28;20577;-73
2021/09/23 07:00:53;;;;;;;6.60;5.87;;;;;;;;;;5028277;28;20467;-72
2021/09/23 07:03:19;;;;;;;11.10;5.37;;;;;;;;;;5030421;28;20442;-72
2021/09/23 07:05:45;;;;;;;5.50;5.00;;;;;;;;;;5028065;28;20472;-72
2021/09/23 07:08:14;;;;;;;6.60;5.20;;;;;;;;;;5030398;28;20436;-72
2021/09/23 07:10:40;;;;;;;8.70;4.43;;;;;;;;;;5028508;28;20863;-73
2021/09/23 07:13:06;;;;;;;9.30;5.27;;;;;;;;;;5029279;28;20463;-74
2021/09/23 07:15:32;;;;;;;6.30;4.47;;;;;;;;;;5030285;28;20447;-74
2021/09/23 07:17:58;;;;;;;5.80;5.30;;;;;;;;;;5033396;28;20459;-73
2021/09/23 07:20:24;;;;;;;5.03;3.97;;;;;;;;;;5030482;28;20442;-73
2021/09/23 07:22:50;;;;;;;4.30;3.90;;;;;;;;;;5028041;28;20455;-73
2021/09/23 07:25:16;;;;;;;9.60;5.03;;;;;;;;;;5029829;28;20518;-70
2021/09/23 07:27:42;;;;;;;5.33;4.83;;;;;;;;;;5029145;28;20943;-73
2021/09/23 07:30:08;;;;;;;6.90;4.13;;;;;;;;;;5029576;28;20490;-75
2021/09/23 07:32:34;;;;;;;4.97;3.70;;;;;;;;;;5030274;28;20891;-74
2021/09/23 07:35:00;;;;;;;4.23;3.80;;;;;;;;;;5030118;28;20442;-73
2021/09/23 07:37:26;;;;;;;6.00;4.20;;;;;;;;;;5044696;28;20795;-73
2021/09/23 07:39:52;;;;;;;5.00;4.17;;;;;;;;;;5031347;28;20529;-74
2021/09/23 07:42:18;;;;;;;5.80;4.13;;;;;;;;;;5030626;28;20428;-74
2021/09/23 07:44:47;;;;;;;4.30;3.90;;;;;;;;;;5030204;28;20863;-74
2021/09/23 07:47:13;;;;;;;5.30;3.80;;;;;;;;;;5027865;28;20899;-74
2021/09/23 07:49:39;;;;;;;5.17;3.87;;;;;;;;;;5030711;28;20427;-75
2021/09/23 07:52:06;;;;;;;4.50;4.10;;;;;;;;;;5030439;28;20455;-74
2021/09/23 07:54:32;;;;;;;5.77;4.90;;;;;;;;;;5030724;28;20481;-72
2021/09/23 07:56:58;;;;;;;4.37;3.87;;;;;;;;;;5030044;28;20431;-73
2021/09/23 07:59:24;;;;;;;5.70;3.80;;;;;;;;;;5030545;28;20440;-72
2021/09/23 08:01:50;;;;;;;8.00;3.57;;;;;;;;;;5031088;28;20494;-71
2021/09/23 08:04:16;;;;;;;3.40;3.10;;;;;;;;;;5030143;28;20467;-72
2021/09/23 08:06:42;;;;;;;4.73;3.67;;;;;;;;;;5030389;28;20443;-73
2021/09/23 08:09:08;;;;;;;2.90;2.70;;;;;;;;;;5030210;28;20972;-73
2021/09/23 08:11:34;;;;;;;3.73;3.17;;;;;;;;;;5029301;28;20435;-72
2021/09/23 08:14:00;;;;;;;4.10;3.13;;;;;;;;;;5029713;28;20522;-72
2021/09/23 08:16:26;;;;;;;3.43;2.90;;;;;;;;;;5025560;28;20526;-71
2021/09/23 08:18:52;;;;;;;3.23;2.97;;;;;;;;;;5044255;28;20435;-71
2021/09/23 08:21:18;;;;;;;3.00;2.70;;;;;;;;;;5028460;28;20440;-72
2021/09/23 08:23:44;;;;;;;3.00;2.43;;;;;;;;;;5028845;28;20440;-73
2021/09/23 08:26:10;;;;;;;4.17;2.90;;;;;;;;;;5028134;28;20436;-72
2021/09/23 08:28:36;;;;;;;2.60;2.40;;;;;;;;;;5028853;28;20911;-72
2021/09/23 08:31:02;;;;;;;3.23;2.47;;;;;;;;;;5028916;28;20522;-72
2021/09/23 08:33:31;;;;;;;3.40;2.73;;;;;;;;;;5028715;28;20450;-71
2021/09/23 08:35:57;;;;;;;4.97;2.67;;;;;;;;;;5027218;28;20444;-72
2021/09/23 08:38:23;;;;;;;3.97;2.33;;;;;;;;;;5028360;28;20447;-70
2021/09/23 08:40:49;;;;;;;3.17;2.50;;;;;;;;;;5027947;28;20871;-74
2021/09/23 08:43:16;;;;;;;3.30;3.00;;;;;;;;;;5023688;28;20446;-74
2021/09/23 08:45:42;;;;;;;5.13;3.27;;;;;;;;;;5012710;28;20512;-76
2021/09/23 08:48:09;;;;;;;3.97;3.13;;;;;;;;;;5012279;28;20440;-78
2021/09/23 08:50:35;;;;;;;2.70;2.50;;;;;;;;;;5012205;28;20425;-76
2021/09/23 08:53:01;;;;;;;2.80;2.60;;;;;;;;;;5012767;28;20424;-77
2021/09/23 08:55:28;;;;;;;2.97;2.70;;;;;;;;;;5031566;28;20432;-77
2021/09/23 08:57:54;;;;;;;3.37;2.70;;;;;;;;;;5031730;28;20506;-77
2021/09/23 09:00:24;;;;;;;5.80;3.23;;;;;;;;;;5025890;28;20447;-76
2021/09/23 09:03:09;;;;;;;3.40;2.80;;;;;;;;;;5032618;28;20408;-77
2021/09/23 09:05:37;;;;;;;3.80;2.57;;;;;;;;;;5028563;28;20950;-78
2021/09/23 09:08:05;;;;;;;2.93;2.73;;;;;;;;;;5026512;28;20779;-79
2021/09/23 09:10:32;;;;;;;3.40;2.90;;;;;;;;;;5029451;28;20533;-79
2021/09/23 09:13:02;;;;;;;4.47;3.00;;;;;;;;;;5028780;28;20446;-77
2021/09/23 09:15:32;;;;;;;3.90;2.97;;;;;;;;;;5032465;28;20443;-78
2021/09/23 09:17:58;;;;;;;3.00;2.20;;;;;;;;;;5027423;28;20779;-79
2021/09/23 09:20:24;;;;;;;3.73;2.30;;;;;;;;;;5029679;28;20443;-79
2021/09/23 09:22:50;;;;;;;3.50;3.23;;;;;;;;;;5027963;28;20984;-79
2021/09/23 09:25:16;;;;;;;3.90;2.50;;;;;;;;;;5030155;28;20498;-80
2021/09/23 09:27:49;;;;;;;4.33;2.87;;;;;;;;;;5028677;28;20431;-79
2021/09/23 09:30:22;;;;;;;2.50;2.30;;;;;;;;;;5029061;28;20439;-79
2021/09/23 09:32:58;;;;;;;3.47;2.50;;;;;;;;;;5029317;28;20439;-78
2021/09/23 09:35:27;;;;;;;2.50;2.30;;;;;;;;;;5028045;28;20438;-78
2021/09/23 09:37:54;;;;;;;4.70;2.27;;;;;;;;;;5027754;28;20431;-79
2021/09/23 09:40:25;;;;;;;2.77;2.50;;;;;;;;;;5032561;28;20973;-80
2021/09/23 09:42:51;;;;;;;2.33;2.10;;;;;;;;;;5028651;28;20919;-80
2021/09/23 09:45:26;;;;;;;2.37;2.10;;;;;;;;;;5029557;28;20495;-77
2021/09/23 09:47:52;;;;;;;2.50;2.30;;;;;;;;;;5028273;28;20437;-81
2021/09/23 09:50:19;;;;;;;2.60;2.40;;;;;;;;;;5044662;28;20494;-80
2021/09/23 09:52:56;;;;;;;2.00;1.77;;;;;;;;;;5029762;28;20460;-77
2021/09/23 09:55:23;;;;;;;2.17;1.97;;;;;;;;;;5047028;28;20469;-79
2021/09/23 09:57:50;;;;;;;2.60;2.40;;;;;;;;;;5032641;28;20424;-74
2021/09/23 10:00:17;;;;;;;2.50;2.30;;;;;;;;;;5033006;28;20447;-79
2021/09/23 10:02:43;;;;;;;2.53;2.33;;;;;;;;;;5032708;28;20423;-78
2021/09/23 10:05:13;;;;;;;4.00;1.90;;;;;;;;;;5032330;28;20545;-76
2021/09/23 10:07:40;;;;;;;2.37;2.20;;;;;;;;;;5032457;28;20574;-76
2021/09/23 10:10:06;;;;;;;2.17;1.97;;;;;;;;;;5032825;28;20466;-78
2021/09/23 10:12:33;;;;;;;2.77;1.83;;;;;;;;;;5030240;28;20446;-80
2021/09/23 10:15:00;;;;;;;1.90;1.80;;;;;;;;;;5032479;28;20443;-77
2021/09/23 10:17:29;;;;;;;2.83;2.10;;;;;;;;;;5032501;28;20427;-75
2021/09/23 10:19:58;;;;;;;2.60;2.07;;;;;;;;;;5032548;28;20475;-74
2021/09/23 10:22:25;;;;;;;1.77;1.67;;;;;;;;;;5032427;28;20428;-75
2021/09/23 10:24:51;;;;;;;2.53;2.20;;;;;;;;;;5032504;28;20559;-76
2021/09/23 10:30:03;;;;;;;2.90;1.90;;;;;;;;;;5032182;28;20511;-74
2021/09/23 10:32:29;;;;;;;2.07;1.80;;;;;;;;;;5032324;28;20522;-75
2021/09/23 10:34:56;;;;;;;2.20;1.80;;;;;;;;;;5032375;28;20412;-79
2021/09/23 10:37:22;;;;;;;2.17;2.07;;;;;;;;;;5032073;28;20459;-77
2021/09/23 10:39:48;;;;;;;2.70;2.50;;;;;;;;;;5041750;28;20489;-77
2021/09/23 10:42:20;;;;;;;1.97;1.80;;;;;;;;;;5030250;28;20646;-75
2021/09/23 10:44:47;;;;;;;2.20;1.83;;;;;;;;;;5029964;28;20492;-74
2021/09/23 10:47:13;;;;;;;4.00;2.07;;;;;;;;;;5032982;28;20771;-78
2021/09/23 10:49:41;;;;;;;2.03;1.87;;;;;;;;;;5031709;28;20439;-74
2021/09/23 10:52:08;;;;;;;1.80;1.70;;;;;;;;;;5031543;28;20435;-76
2021/09/23 10:54:34;;;;;;;1.70;1.50;;;;;;;;;;5027508;28;20458;-78
2021/09/23 10:57:00;;;;;;;1.87;1.73;;;;;;;;;;5029523;28;20902;-79
2021/09/23 10:59:26;;;;;;;2.00;1.60;;;;;;;;;;5030731;28;20435;-75
2021/09/23 11:01:52;;;;;;;2.10;1.90;;;;;;;;;;5030036;28;20436;-79
2021/09/23 11:04:20;;;;;;;2.10;1.83;;;;;;;;;;5030992;28;20499;-76
2021/09/23 11:06:46;;;;;;;1.70;1.60;;;;;;;;;;5031869;28;20462;-78
2021/09/23 11:09:17;;;;;;;1.90;1.77;;;;;;;;;;5031628;28;20463;-74
2021/09/23 11:11:46;;;;;;;2.20;2.10;;;;;;;;;;5030780;28;20436;-75
2021/09/23 11:14:12;;;;;;;3.67;2.33;;;;;;;;;;5031571;28;20435;-76
2021/09/23 11:16:38;;;;;;;2.17;1.53;;;;;;;;;;5031218;28;20473;-74
2021/09/23 11:19:06;;;;;;;4.70;1.70;;;;;;;;;;5031219;28;20511;-73
2021/09/23 11:21:32;;;;;;;2.70;1.73;;;;;;;;;;5027891;28;20538;-73
2021/09/23 11:23:59;;;;;;;2.53;1.97;;;;;;;;;;5028138;28;20775;-74
2021/09/23 11:26:25;;;;;;;2.90;2.13;;;;;;;;;;5029760;28;20934;-78
2021/09/23 11:28:52;;;;;;;2.00;1.80;;;;;;;;;;5031460;28;20440;-75
2021/09/23 11:31:18;;;;;;;2.27;1.60;;;;;;;;;;5031179;28;20443;-79
2021/09/23 11:33:51;;;;;;;2.20;1.70;;;;;;;;;;5031331;28;20444;-73
2021/09/23 11:36:18;;;;;;;1.50;1.40;;;;;;;;;;5043915;28;20435;-74
2021/09/23 11:38:44;;;;;;;1.80;1.70;;;;;;;;;;5030948;28;20420;-76
2021/09/23 11:41:14;;;;;;;2.40;1.80;;;;;;;;;;5030718;28;21518;-73
2021/09/23 11:43:40;;;;;;;3.93;1.77;;;;;;;;;;5027741;28;20467;-72
2021/09/23 11:46:06;;;;;;;2.93;2.20;;;;;;;;;;5030356;28;20471;-74
2021/09/23 11:48:35;;;;;;;1.97;1.70;;;;;;;;;;5031115;28;20424;-77
2021/09/23 11:51:09;;;;;;;2.00;1.80;;;;;;;;;;5030561;28;20447;-75
2021/09/23 11:53:37;;;;;;;2.03;1.83;;;;;;;;;;5030847;28;20485;-78
2021/09/23 11:56:12;;;;;;;1.83;1.70;;;;;;;;;;5030269;28;20785;-79
2021/09/23 11:58:40;;;;;;;2.27;1.90;;;;;;;;;;5044593;28;20841;-80
2021/09/23 12:01:06;;;;;;;1.80;1.70;;;;;;;;;;5030477;28;20431;-80
2021/09/23 12:03:36;;;;;;;2.63;2.43;;;;;;;;;;5030618;28;20489;-81
2021/09/23 12:06:02;;;;;;;1.80;1.70;;;;;;;;;;5037570;28;20479;-73
2021/09/23 12:08:29;;;;;;;1.70;1.50;;;;;;;;;;5030456;28;20442;-80
2021/09/23 12:11:00;;;;;;;2.00;1.80;;;;;;;;;;5029880;28;20436;-77
2021/09/23 12:15:54;;;;;;;2.20;2.00;;;;;;;;;;5030186;28;20582;-75
2021/09/23 12:18:22;;;;;;;1.73;1.60;;;;;;;;;;5030319;28;20856;-74
2021/09/23 12:20:51;;;;;;;1.97;1.70;;;;;;;;;;5030790;28;20447;-79
2021/09/23 12:23:21;;;;;;;2.20;2.00;;;;;;;;;;5030372;28;20763;-74
2021/09/23 12:26:02;;;;;;;1.73;1.63;;;;;;;;;;5030096;28;20492;-78
2021/09/23 12:28:29;;;;;;;3.07;1.90;;;;;;;;;;5030061;28;20506;-79
2021/09/23 12:30:59;;;;;;;2.37;1.90;;;;;;;;;;5030562;28;20526;-74
2021/09/23 12:33:25;;;;;;;1.90;1.60;;;;;;;;;;5028637;28;20431;-76
2021/09/23 12:36:06;;;;;;;2.57;1.90;;;;;;;;;;5030192;28;20442;-79
2021/09/23 12:38:32;;;;;;;2.03;1.93;;;;;;;;;;5028299;28;20466;-79
2021/09/23 12:40:58;;;;;;;1.70;1.60;;;;;;;;;;5044879;28;20498;-75
2021/09/23 12:43:32;;;;;;;1.87;1.77;;;;;;;;;;5027210;28;20431;-78
2021/09/23 12:46:12;;;;;;;2.77;1.50;;;;;;;;;;5029974;28;20486;-78
2021/09/23 12:48:39;;;;;;;1.60;1.47;;;;;;;;;;5029330;28;20439;-75
2021/09/23 12:51:05;;;;;;;2.80;1.90;;;;;;;;;;5043040;28;20431;-77
2021/09/23 12:53:31;;;;;;;5.30;1.80;;;;;;;;;;5024711;28;21069;-77
2021/09/23 12:55:57;;;;;;;2.03;1.50;;;;;;;;;;5028400;28;20451;-80
2021/09/23 12:58:23;;;;;;;2.03;1.87;;;;;;;;;;5028320;28;20914;-79
2021/09/23 13:00:49;;;;;;;2.00;1.80;;;;;;;;;;5029942;28;20432;-78
2021/09/23 13:03:15;;;;;;;2.37;1.50;;;;;;;;;;5029902;28;20454;-79
2021/09/23 13:05:43;;;;;;;3.20;1.83;;;;;;;;;;5045001;28;20487;-81
2021/09/23 13:08:09;;;;;;;2.20;2.00;;;;;;;;;;5030158;28;20427;-83
2021/09/23 13:10:35;;;;;;;3.20;2.23;;;;;;;;;;5044712;28;20462;-78
2021/09/23 13:13:05;;;;;;;3.57;2.13;;;;;;;;;;5028876;28;20439;-80
2021/09/23 13:15:40;;;;;;;5.40;2.03;;;;;;;;;;5043232;28;20797;-73
2021/09/23 13:18:20;;;;;;;3.33;2.70;;;;;;;;;;5028650;28;20431;-76
2021/09/23 13:20:50;;;;;;;2.90;2.67;;;;;;;;;;5027975;28;20435;-78
2021/09/23 13:23:19;;;;;;;2.50;2.20;;;;;;;;;;5027870;28;21006;-76
2021/09/23 13:25:46;;;;;;;3.80;2.40;;;;;;;;;;5039250;28;20476;-75
2021/09/23 13:28:15;;;;;;;2.30;2.10;;;;;;;;;;5031785;28;20498;-72
2021/09/23 13:30:43;;;;;;;2.30;1.83;;;;;;;;;;5029407;28;20527;-72
2021/09/23 13:33:09;;;;;;;2.40;2.20;;;;;;;;;;5029045;28;20429;-73
2021/09/23 13:35:36;;;;;;;2.20;2.00;;;;;;;;;;5016059;28;20427;-71
2021/09/23 13:38:02;;;;;;;2.40;2.20;;;;;;;;;;5016295;28;20916;-70
2021/09/23 13:40:28;;;;;;;5.57;2.10;;;;;;;;;;5035155;28;20542;-75
2021/09/23 13:42:54;;;;;;;5.87;2.20;;;;;;;;;;5035169;28;20418;-74
2021/09/23 13:45:20;;;;;;;2.23;1.97;;;;;;;;;;5035431;28;20988;-74
2021/09/23 13:47:46;;;;;;;2.40;2.20;;;;;;;;;;5025103;28;20538;-74
2021/09/23 13:50:13;;;;;;;3.00;2.03;;;;;;;;;;5022855;28;20890;-77
2021/09/23 13:52:39;;;;;;;2.40;2.27;;;;;;;;;;5017313;28;20428;-75
2021/09/23 13:55:05;;;;;;;1.90;1.80;;;;;;;;;;5030794;28;20952;-73
2021/09/23 13:57:31;;;;;;;2.30;2.10;;;;;;;;;;5032229;28;20426;-73
2021/09/23 13:59:57;;;;;;;2.60;2.03;;;;;;;;;;5032473;28;20439;-73
2021/09/23 14:02:23;;;;;;;2.00;1.87;;;;;;;;;;5032560;28;20431;-73
2021/09/23 14:04:50;;;;;;;3.50;2.73;;;;;;;;;;5029085;28;20480;-74
2021/09/23 14:07:16;;;;;;;1.97;1.80;;;;;;;;;;5031904;28;20535;-73
2021/09/23 14:09:42;;;;;;;2.60;2.40;;;;;;;;;;5032112;28;20454;-74
2021/09/23 14:12:09;;;;;;;2.63;2.40;;;;;;;;;;5031769;28;20787;-73
2021/09/23 14:14:36;;;;;;;4.40;2.43;;;;;;;;;;5031939;28;20813;-73
2021/09/23 14:17:02;;;;;;;3.70;2.33;;;;;;;;;;5032324;28;20515;-73
2021/09/23 14:19:28;;;;;;;2.93;2.60;;;;;;;;;;5032046;28;20486;-73
2021/09/23 14:21:54;;;;;;;7.20;3.00;;;;;;;;;;5031009;28;20934;-74
2021/09/23 14:24:20;;;;;;;2.50;2.30;;;;;;;;;;5031897;28;20481;-73
2021/09/23 14:26:46;;;;;;;2.40;2.20;;;;;;;;;;5031345;28;20494;-73
2021/09/23 14:29:17;;;;;;;2.73;2.50;;;;;;;;;;5029511;28;20439;-72
2021/09/23 14:31:43;;;;;;;5.63;2.80;;;;;;;;;;5029346;28;20446;-72
2021/09/23 14:34:10;;;;;;;6.27;3.03;;;;;;;;;;5030105;28;20420;-73
2021/09/23 14:36:36;;;;;;;3.83;2.60;;;;;;;;;;5031772;28;20790;-73
2021/09/23 14:39:03;;;;;;;3.03;2.63;;;;;;;;;;5031087;28;20525;-73
2021/09/23 14:41:29;;;;;;;4.40;3.20;;;;;;;;;;5031338;28;20435;-73
2021/09/23 14:43:55;;;;;;;3.70;3.40;;;;;;;;;;5031464;28;20599;-73
2021/09/23 14:46:21;;;;;;;7.57;3.13;;;;;;;;;;5034430;28;21169;-73